Time,TemperatureF,DewpointF,PressureIn,WindDirection,WindDirectionDegrees,WindSpeedMPH,WindSpeedGustMPH,Humidity,HourlyPrecipIn,Conditions,Clouds,dailyrainin,SoftwareType,DateUTC
2014-10-24 00:22:00,49.0,33.0,30.05,ESE,123,0.0,1.0,54,0.00,,,0.00,,2014-10-24 07:22:00,
2014-10-24 00:52:00,48.0,34.0,30.06,ESE,123,0.0,0.0,57,0.00,,,0.00,,2014-10-24 07:52:00,
2014-10-24 01:22:00,47.0,33.0,30.07,ESE,123,0.0,1.0,57,0.00,,,0.00,,2014-10-24 08:22:00,
2014-10-24 01:52:00,47.0,33.0,30.06,ESE,123,0.0,2.0,58,0.00,,,0.00,,2014-10-24 08:52:00,
2014-10-24 02:22:00,46.0,32.0,30.06,ESE,123,0.0,2.0,58,0.00,,,0.00,,2014-10-24 09:22:00,
2014-10-24 02:43:00,46.0,31.0,30.06,ESE,123,0.0,0.0,55,0.00,,,0.00,,2014-10-24 09:43:00,
2014-10-24 02:54:00,46.0,31.0,30.06,ESE,123,0.0,1.0,56,0.00,,,0.00,,2014-10-24 09:54:00,
2014-10-24 03:23:00,46.0,32.0,30.05,ESE,123,0.0,0.0,57,0.00,,,0.00,,2014-10-24 10:23:00,
2014-10-24 03:53:00,45.0,31.0,30.05,ESE,123,0.0,0.0,58,0.00,,,0.00,,2014-10-24 10:53:00,
2014-10-24 04:22:00,44.0,31.0,30.03,ESE,123,0.0,3.0,61,0.00,,,0.00,,2014-10-24 11:22:00,
2014-10-24 04:52:00,43.0,31.0,30.03,ESE,123,1.0,4.0,63,0.00,,,0.00,,2014-10-24 11:52:00,
2014-10-24 05:22:00,42.0,31.0,30.03,ESE,123,0.0,0.0,64,0.00,,,0.00,,2014-10-24 12:22:00,
2014-10-24 05:52:00,42.0,31.0,30.05,ESE,123,0.0,1.0,64,0.00,,,0.00,,2014-10-24 12:52:00,
2014-10-24 06:22:00,41.0,30.0,30.05,ESE,123,0.0,2.0,64,0.00,,,0.00,,2014-10-24 13:22:00,
2014-10-24 06:42:00,41.0,31.0,30.03,ESE,123,0.0,0.0,66,0.00,,,0.00,,2014-10-24 13:42:00,
2014-10-24 06:52:00,41.0,31.0,30.04,ESE,123,0.0,1.0,66,0.00,,,0.00,,2014-10-24 13:52:00,
2014-10-24 07:22:00,40.0,31.0,30.04,ESE,123,0.0,2.0,70,0.00,,,0.00,,2014-10-24 14:22:00,
2014-10-24 07:42:00,39.0,30.0,30.06,ESE,123,0.0,0.0,70,0.00,,,0.00,,2014-10-24 14:42:00,
2014-10-24 07:52:00,39.0,30.0,30.07,ESE,123,0.0,0.0,71,0.00,,,0.00,,2014-10-24 14:52:00,
2014-10-24 08:22:00,40.0,31.0,30.06,ESE,123,0.0,0.0,70,0.00,,,0.00,,2014-10-24 15:22:00,
2014-10-24 08:43:00,40.0,30.0,30.06,ESE,123,0.0,2.0,68,0.00,,,0.00,,2014-10-24 15:43:00,
2014-10-24 08:53:00,42.0,32.0,30.08,ESE,123,0.0,2.0,67,0.00,,,0.00,,2014-10-24 15:53:00,
2014-10-24 09:23:00,44.0,32.0,30.07,ESE,123,0.0,5.0,62,0.00,,,0.00,,2014-10-24 16:23:00,
2014-10-24 09:53:00,49.0,34.0,30.07,ESE,123,0.0,4.0,55,0.00,,,0.00,,2014-10-24 16:53:00,
2014-10-24 13:52:00,79.0,22.0,29.95,SSW,192,8.0,23.0,12,0.00,,,0.00,,2014-10-24 20:52:00,
2014-10-24 14:54:00,78.0,21.0,29.93,SSE,158,13.0,20.0,12,0.00,,,0.00,,2014-10-24 21:54:00,
2014-10-24 15:23:00,78.0,21.0,29.93,SSE,155,6.0,21.0,12,0.00,,,0.00,,2014-10-24 22:23:00,
2014-10-24 15:52:00,78.0,19.0,29.93,SSW,203,11.0,20.0,11,0.00,,,0.00,,2014-10-24 22:52:00,
2014-10-24 16:22:00,78.0,21.0,29.93,ESE,123,7.0,14.0,12,0.00,,,0.00,,2014-10-24 23:22:00,
2014-10-24 16:53:00,78.0,21.0,29.94,SE,127,6.0,15.0,12,0.00,,,0.00,,2014-10-24 23:53:00,